createdAt,value
2022-10-29T00:05:18.513Z,1023.16
2022-10-29T00:14:56.275Z,1023.09
2022-10-29T00:24:33.411Z,1023.21
2022-10-29T00:34:10.888Z,1023.05
2022-10-29T00:43:48.292Z,1023.04
2022-10-29T00:53:26.033Z,1023.22
2022-10-29T01:03:03.139Z,1023.21
2022-10-29T01:12:39.891Z,1023.25
2022-10-29T01:22:15.488Z,1023.23
2022-10-29T01:31:52.027Z,1023.26
2022-10-29T01:41:30.363Z,1023.18
2022-10-29T01:51:07.310Z,1023.24
2022-10-29T02:00:44.277Z,1023.34
2022-10-29T02:10:20.842Z,1023.34
2022-10-29T02:19:57.900Z,1023.48
2022-10-29T02:29:34.866Z,1023.48
2022-10-29T02:39:11.931Z,1023.55
2022-10-29T02:48:48.859Z,1023.51
2022-10-29T02:58:25.538Z,1023.58
2022-10-29T03:08:02.684Z,1023.52
2022-10-29T03:17:39.750Z,1023.42
2022-10-29T03:27:17.035Z,1023.47
2022-10-29T03:36:53.816Z,1023.5
2022-10-29T03:46:31.048Z,1023.55
2022-10-29T03:56:08.390Z,1023.71
2022-10-29T04:05:44.924Z,1023.78
2022-10-29T04:15:21.765Z,1023.79
2022-10-29T04:34:35.659Z,1024.02
2022-10-29T04:44:12.455Z,1024.03
2022-10-29T04:53:49.309Z,1024.02
2022-10-29T05:03:26.455Z,1024.09
2022-10-29T05:13:02.862Z,1024.12
2022-10-29T05:22:39.851Z,1024.16
2022-10-29T05:32:15.463Z,1024.08
2022-10-29T05:41:52.091Z,1024.09
2022-10-29T05:51:29.333Z,1024.1
2022-10-29T06:01:06.223Z,1024.21
2022-10-29T06:10:43.941Z,1024.22
2022-10-29T06:20:21.541Z,1024.07
2022-10-29T06:29:59.226Z,1024.18
2022-10-29T06:39:36.653Z,1024.21
2022-10-29T06:49:13.999Z,1024.26
2022-10-29T06:58:51.591Z,1024.14
2022-10-29T07:08:28.936Z,1024.07
2022-10-29T07:18:08.100Z,1023.91
2022-10-29T07:27:45.876Z,1023.91
2022-10-29T07:37:24.444Z,1023.88
2022-10-29T07:47:02.679Z,1023.85
2022-10-29T07:56:42.349Z,1023.91
2022-10-29T08:06:18.560Z,1023.88
2022-10-29T08:15:56.210Z,1023.93
2022-10-29T08:25:34.764Z,1023.86
2022-10-29T08:35:13.388Z,1023.91
2022-10-29T08:44:51.955Z,1023.73
2022-10-29T08:54:31.651Z,1023.49
2022-10-29T09:04:08.920Z,1023.48
2022-10-29T09:23:26.236Z,1023.36
2022-10-29T09:33:04.934Z,1023.34
2022-10-29T09:42:43.443Z,1023.36
2022-10-29T09:52:21.806Z,1023.14
2022-10-29T10:11:37.595Z,1022.88
2022-10-29T10:30:52.489Z,1022.71
2022-10-29T10:40:31.176Z,1022.64
2022-10-29T10:50:08.052Z,1022.51
2022-10-29T10:59:47.801Z,1022.54
2022-10-29T11:09:53.471Z,1022.3
2022-10-29T11:19:30.279Z,1022.23
2022-10-29T11:29:09.794Z,1022.19
2022-10-29T11:38:40.508Z,1022.08
2022-10-29T11:48:20.619Z,1022.04
2022-10-29T11:57:52.597Z,1021.79
2022-10-29T12:07:30.016Z,1021.69
2022-10-29T12:17:07.804Z,1021.53
2022-10-29T12:26:46.433Z,1021.56
2022-10-29T12:36:26.634Z,1021.35
2022-10-29T12:46:19.842Z,1021.25
2022-10-29T12:55:40.897Z,1021.11
2022-10-29T13:05:17.619Z,1021.06
2022-10-29T13:14:53.751Z,1021.01
2022-10-29T13:24:30.082Z,1020.98
2022-10-29T13:34:07.459Z,1021.04
2022-10-29T13:43:53.326Z,1020.83
2022-10-29T13:53:29.445Z,1020.83
2022-10-29T14:03:12.152Z,1020.76
2022-10-29T14:12:48.121Z,1020.73
2022-10-29T14:22:20.270Z,1020.55
2022-10-29T14:41:26.677Z,1020.74
2022-10-29T14:51:02.058Z,1020.77
2022-10-29T15:00:38.692Z,1020.82
2022-10-29T15:10:14.874Z,1020.84
2022-10-29T15:29:32.429Z,1020.82
2022-10-29T15:39:02.994Z,1020.86
2022-10-29T15:48:39.013Z,1020.98
2022-10-29T16:07:51.163Z,1021.05
2022-10-29T16:17:27.755Z,1021.11
2022-10-29T16:36:43.292Z,1021.26
2022-10-29T16:46:18.916Z,1021.34
2022-10-29T16:55:55.697Z,1021.32
2022-10-29T17:05:32.819Z,1021.45
2022-10-29T17:15:09.965Z,1021.52
2022-10-29T17:24:47.000Z,1021.55
2022-10-29T17:34:23.812Z,1021.64
2022-10-29T17:44:00.280Z,1021.68
2022-10-29T17:53:37.169Z,1021.76
2022-10-29T18:03:14.363Z,1021.82
2022-10-29T18:12:51.624Z,1021.69
2022-10-29T18:22:29.065Z,1021.71
2022-10-29T18:32:06.063Z,1021.82
2022-10-29T18:41:43.272Z,1021.74
2022-10-29T18:51:20.825Z,1021.73
2022-10-29T19:00:57.573Z,1021.65
2022-10-29T19:10:35.092Z,1021.64
2022-10-29T19:20:14.401Z,1021.68
2022-10-29T19:29:49.571Z,1021.68
2022-10-29T19:39:27.604Z,1021.68
2022-10-29T19:49:04.068Z,1021.75
2022-10-29T19:58:40.981Z,1021.73
2022-10-29T20:08:17.708Z,1021.82
2022-10-29T20:17:54.862Z,1021.78
2022-10-29T20:37:08.161Z,1021.82
2022-10-29T20:46:45.304Z,1021.81
2022-10-29T20:56:22.711Z,1021.85
2022-10-29T21:05:59.614Z,1021.8
2022-10-29T21:15:37.229Z,1021.78
2022-10-29T21:25:14.825Z,1021.71
2022-10-29T21:34:52.281Z,1021.68
2022-10-29T21:44:29.547Z,1021.64
2022-10-29T21:54:06.566Z,1021.58
2022-10-29T22:03:43.717Z,1021.6
2022-10-29T22:13:20.619Z,1021.55
2022-10-29T22:22:58.004Z,1021.58
2022-10-29T22:42:11.968Z,1021.57
2022-10-29T22:51:48.922Z,1021.51
2022-10-29T23:01:25.869Z,1021.43
2022-10-29T23:11:03.093Z,1021.37
2022-10-29T23:30:17.737Z,1021.39
2022-10-29T23:39:55.022Z,1021.32
2022-10-29T23:49:32.485Z,1021.33
2022-10-29T23:59:09.551Z,1021.32
